This is the latest recevied weather packets stored in our database for station/object IW1PPB-3. If no packets are shown the sender has not sent any weather packets the latest 1 day(s).
| Time | Temp. | Humidity | Pressure | Rain* | Wind** | Luminosity | Snow |
|---|---|---|---|---|---|---|---|
| 1778100213 | 16.67° C | 76% | 1009.7 hPa | 0 mm | - | - | - |
| 1778098414 | 17.22° C | 73% | 1009.2 hPa | 0 mm | - | - | - |
| 1778097217 | 17.78° C | 73% | 1008.9 hPa | 0 mm | - | - | - |
| 1778096619 | 17.78° C | 75% | 1008.7 hPa | 0 mm | - | - | - |
| 1778096004 | 17.78° C | 80% | 1008.5 hPa | 0 mm | - | - | - |
| 1778095413 | 18.33° C | 79% | 1008.2 hPa | 0 mm | - | - | - |
| 1778094807 | 18.33° C | 78% | 1008.1 hPa | 0 mm | - | - | - |
| 1778094207 | 18.33° C | 78% | 1008.1 hPa | 0 mm | - | - | - |
| 1778093621 | 18.33° C | 77% | 1008 hPa | 0 mm | - | - | - |
| 1778093020 | 18.33° C | 77% | 1007.9 hPa | 0 mm | - | - | - |
| 1778092415 | 18.33° C | 79% | 1007.8 hPa | 0 mm | - | - | - |
| 1778089406 | 18.33° C | 80% | 1007.2 hPa | 0 mm | - | - | - |
| 1778087621 | 18.89° C | 71% | 1007.1 hPa | 0 mm | - | - | - |
| 1778085821 | 19.44° C | 69% | 1006.8 hPa | 0 mm | - | - | - |
| 1778085211 | 18.89° C | 69% | 1006.8 hPa | 0 mm | - | - | - |
| 1778084611 | 19.44° C | 70% | 1006.8 hPa | 0 mm | - | - | - |
| 1778083426 | 19.44° C | 70% | 1006.6 hPa | 0 mm | - | - | - |
| 1778078614 | 18.89° C | 77% | 1006.7 hPa | 0 mm | - | - | - |
| 1778077409 | 18.33° C | 80% | 1006.6 hPa | 0 mm | - | - | - |
| 1778075005 | 18.33° C | 76% | 1006.8 hPa | 0 mm | - | - | - |
| 1778074419 | 18.89° C | 75% | 1006.9 hPa | 0 mm | - | - | - |
| 1778073216 | 19.44° C | 72% | 1007 hPa | 0 mm | - | - | - |
| 1778068416 | 18.33° C | 78% | 1007.2 hPa | 0 mm | - | - | - |
| 1778066617 | 18.33° C | 76% | 1007.2 hPa | 0 mm | - | - | - |
| 1778064822 | 18.33° C | 78% | 1007.5 hPa | 0 mm | - | - | - |
* Rain latest hour (hover to see other rain measurements)
** Current wind speed in m/s (hover to see current wind gust speed)